createdAt,value
2019-01-19T00:00:43.414Z,-4.10
2019-01-19T00:03:27.215Z,-4.20
2019-01-19T00:06:20.035Z,-4.30
2019-01-19T00:08:49.275Z,-4.20
2019-01-19T00:11:29.788Z,-4.20
2019-01-19T00:14:02.431Z,-4.30
2019-01-19T00:16:54.914Z,-4.30
2019-01-19T00:19:48.911Z,-4.30
2019-01-19T00:22:32.573Z,-4.30
2019-01-19T00:25:22.338Z,-4.30
2019-01-19T00:28:03.079Z,-4.30
2019-01-19T00:30:37.515Z,-4.20
2019-01-19T00:33:17.946Z,-4.30
2019-01-19T00:35:49.691Z,-4.40
2019-01-19T00:38:21.370Z,-4.40
2019-01-19T00:41:26.546Z,-4.40
2019-01-19T00:43:58.223Z,-4.60
2019-01-19T00:46:32.587Z,-4.70
2019-01-19T00:49:04.267Z,-4.60
2019-01-19T00:51:45.014Z,-4.60
2019-01-19T00:54:18.672Z,-4.60
2019-01-19T00:56:53.632Z,-4.60
2019-01-19T00:59:25.639Z,-4.70
2019-01-19T01:01:57.305Z,-4.70
2019-01-19T01:04:51.306Z,-4.70
2019-01-19T01:07:34.778Z,-4.60
2019-01-19T01:10:14.955Z,-4.60
2019-01-19T01:15:35.939Z,-4.70
2019-01-19T01:18:10.550Z,-4.70
2019-01-19T01:20:47.998Z,-4.90
2019-01-19T01:23:25.811Z,-4.80
2019-01-19T01:26:11.878Z,-4.90
2019-01-19T01:28:52.530Z,-4.90
2019-01-19T01:31:27.198Z,-5.00
2019-01-19T01:33:58.866Z,-5.00
2019-01-19T01:36:30.543Z,-5.00
2019-01-19T01:39:21.712Z,-5.00
2019-01-19T01:41:56.539Z,-5.00
2019-01-19T01:44:28.218Z,-5.00
2019-01-19T01:47:08.930Z,-5.00
2019-01-19T01:49:40.615Z,-5.00
2019-01-19T01:52:27.210Z,-5.00
2019-01-19T01:54:58.891Z,-5.00
2019-01-19T01:57:27.547Z,-5.00
2019-01-19T02:00:14.234Z,-5.10
2019-01-19T02:02:57.906Z,-5.00
2019-01-19T02:05:40.225Z,-5.10
2019-01-19T02:10:54.047Z,-5.10
2019-01-19T02:13:25.719Z,-5.30
2019-01-19T02:16:00.204Z,-5.20
2019-01-19T02:18:48.163Z,-5.20
2019-01-19T02:21:39.092Z,-5.30
2019-01-19T02:26:43.954Z,-5.60
2019-01-19T02:29:37.170Z,-5.80
2019-01-19T02:32:27.245Z,-5.60
2019-01-19T02:35:07.642Z,-5.50
2019-01-19T02:37:47.908Z,-5.50
2019-01-19T02:40:28.627Z,-5.50
2019-01-19T02:43:05.151Z,-5.50
2019-01-19T02:45:53.370Z,-5.50
2019-01-19T02:48:27.674Z,-5.50
2019-01-19T02:51:05.078Z,-5.50
2019-01-19T02:53:40.425Z,-5.60
2019-01-19T02:56:12.098Z,-5.70
2019-01-19T02:59:02.414Z,-5.90
2019-01-19T03:02:04.794Z,-5.80
2019-01-19T03:04:38.370Z,-5.80
2019-01-19T03:07:25.023Z,-5.80
2019-01-19T03:10:11.924Z,-5.70
2019-01-19T03:12:52.671Z,-5.80
2019-01-19T03:15:39.447Z,-5.80
2019-01-19T03:18:33.580Z,-5.80
2019-01-19T03:21:14.111Z,-5.80
2019-01-19T03:23:49.739Z,-5.80
2019-01-19T03:26:27.163Z,-5.80
2019-01-19T03:29:01.434Z,-5.90
2019-01-19T03:32:01.638Z,-5.90
2019-01-19T03:34:46.459Z,-5.90
2019-01-19T03:39:50.649Z,-5.90
2019-01-19T03:42:27.899Z,-6.20
2019-01-19T03:45:02.445Z,-6.30
2019-01-19T03:47:40.211Z,-6.40
2019-01-19T03:50:23.747Z,-6.30
2019-01-19T03:53:20.720Z,-6.20
2019-01-19T03:56:01.211Z,-6.20
2019-01-19T03:58:44.671Z,-6.20
2019-01-19T04:01:21.766Z,-6.10
2019-01-19T04:04:02.118Z,-6.10
2019-01-19T04:06:39.641Z,-6.10
2019-01-19T04:09:20.395Z,-6.10
2019-01-19T04:12:08.566Z,-6.10
2019-01-19T04:14:45.127Z,-6.10
2019-01-19T04:17:29.050Z,-6.10
2019-01-19T04:20:00.727Z,-6.10
2019-01-19T04:22:32.227Z,-6.20
2019-01-19T04:25:03.899Z,-6.10
2019-01-19T04:27:32.488Z,-6.10
2019-01-19T04:30:01.094Z,-6.20
2019-01-19T04:32:29.676Z,-6.20
2019-01-19T04:34:58.293Z,-6.20
2019-01-19T04:37:26.883Z,-6.20
2019-01-19T04:39:55.471Z,-6.20
2019-01-19T04:42:24.223Z,-6.20
2019-01-19T04:44:52.823Z,-6.30
2019-01-19T04:47:21.415Z,-6.30
2019-01-19T04:49:50.010Z,-6.30
2019-01-19T04:52:18.594Z,-6.50
2019-01-19T04:54:48.447Z,-6.60
2019-01-19T04:57:17.163Z,-6.50
2019-01-19T04:59:45.790Z,-6.60
2019-01-19T05:02:14.448Z,-6.50
2019-01-19T05:04:45.021Z,-6.50
2019-01-19T05:07:13.633Z,-6.40
2019-01-19T05:09:42.222Z,-6.40
2019-01-19T05:12:10.814Z,-6.40
2019-01-19T05:14:43.169Z,-6.40
2019-01-19T05:17:11.743Z,-6.50
2019-01-19T05:19:40.352Z,-6.60
2019-01-19T05:22:08.944Z,-6.60
2019-01-19T05:24:37.526Z,-6.60
2019-01-19T05:27:06.111Z,-6.60
2019-01-19T05:29:34.719Z,-6.60
2019-01-19T05:32:03.311Z,-6.60
2019-01-19T05:34:31.902Z,-6.60
2019-01-19T05:37:00.511Z,-6.60
2019-01-19T05:39:29.098Z,-6.60
2019-01-19T05:41:57.700Z,-6.60
2019-01-19T05:44:26.290Z,-6.60
2019-01-19T05:46:54.893Z,-6.60
2019-01-19T05:49:23.484Z,-6.60
2019-01-19T05:51:52.090Z,-6.60
2019-01-19T05:54:20.676Z,-6.70
2019-01-19T05:56:49.275Z,-6.70
2019-01-19T05:59:17.863Z,-6.70
2019-01-19T06:01:46.464Z,-6.70
2019-01-19T06:04:15.051Z,-6.70
2019-01-19T06:06:46.876Z,-6.80
2019-01-19T06:09:13.976Z,-6.70
2019-01-19T06:11:42.571Z,-6.90
2019-01-19T06:14:11.154Z,-7.00
2019-01-19T06:19:08.347Z,-7.00
2019-01-19T06:21:37.414Z,-7.00
2019-01-19T06:24:05.998Z,-7.00
2019-01-19T06:26:34.603Z,-7.00
2019-01-19T06:29:03.191Z,-7.00
2019-01-19T06:31:31.802Z,-6.90
2019-01-19T06:34:00.379Z,-7.00
2019-01-19T06:36:29.003Z,-7.00
2019-01-19T06:38:57.615Z,-7.00
2019-01-19T06:41:26.206Z,-7.00
2019-01-19T06:43:54.816Z,-6.90
2019-01-19T06:46:23.398Z,-7.00
2019-01-19T06:48:51.999Z,-7.00
2019-01-19T06:51:20.583Z,-7.00
2019-01-19T06:53:49.558Z,-7.00
2019-01-19T06:56:18.138Z,-7.00
2019-01-19T06:58:46.758Z,-7.00
2019-01-19T07:01:15.358Z,-7.00
2019-01-19T07:03:43.939Z,-7.00
2019-01-19T07:06:12.527Z,-7.00
2019-01-19T07:08:41.123Z,-7.00
2019-01-19T07:11:09.702Z,-7.00
2019-01-19T07:13:38.307Z,-7.00
2019-01-19T07:16:06.899Z,-7.10
2019-01-19T07:18:35.507Z,-7.10
2019-01-19T07:21:04.243Z,-7.00
2019-01-19T07:23:32.846Z,-7.00
2019-01-19T07:26:01.432Z,-6.90
2019-01-19T07:28:30.035Z,-6.90
2019-01-19T07:30:58.629Z,-6.90
2019-01-19T07:33:28.193Z,-7.00
2019-01-19T07:35:56.779Z,-7.00
2019-01-19T07:38:25.378Z,-6.90
2019-01-19T07:40:53.967Z,-6.80
2019-01-19T07:43:22.947Z,-6.70
2019-01-19T07:45:51.543Z,-6.60
2019-01-19T07:48:20.195Z,-6.70
2019-01-19T07:50:48.798Z,-6.70
2019-01-19T07:53:17.390Z,-6.70
2019-01-19T07:55:45.995Z,-6.70
2019-01-19T07:58:14.578Z,-6.50
2019-01-19T08:00:43.187Z,-6.40
2019-01-19T08:03:11.795Z,-6.50
2019-01-19T08:05:40.400Z,-6.50
2019-01-19T08:08:08.991Z,-6.50
2019-01-19T08:10:37.590Z,-6.40
2019-01-19T08:13:06.175Z,-6.30
2019-01-19T08:15:34.779Z,-6.20
2019-01-19T08:18:03.362Z,-6.10
2019-01-19T08:20:31.964Z,-6.00
2019-01-19T08:23:00.551Z,-6.00
2019-01-19T08:25:29.156Z,-5.90
2019-01-19T08:27:57.745Z,-5.80
2019-01-19T08:30:28.488Z,-5.80
2019-01-19T08:33:00.218Z,-5.80
2019-01-19T08:35:29.289Z,-5.70
2019-01-19T08:37:57.872Z,-5.60
2019-01-19T08:40:28.911Z,-5.50
2019-01-19T08:43:06.843Z,-5.40
2019-01-19T08:45:35.442Z,-5.30
2019-01-19T08:48:04.372Z,-5.10
2019-01-19T08:50:32.963Z,-4.90
2019-01-19T08:53:02.527Z,-4.50
2019-01-19T08:55:36.824Z,-4.30
2019-01-19T08:58:05.496Z,-4.10
2019-01-19T09:00:34.083Z,-4.10
2019-01-19T09:03:02.689Z,-3.90
2019-01-19T09:05:31.273Z,-4.00
2019-01-19T09:07:59.870Z,-3.70
2019-01-19T09:10:29.995Z,-3.50
2019-01-19T09:13:00.499Z,-3.80
2019-01-19T09:15:29.087Z,-3.60
2019-01-19T09:17:57.691Z,-3.80
2019-01-19T09:20:26.277Z,-3.80
2019-01-19T09:23:05.627Z,-3.50
2019-01-19T09:25:34.219Z,-3.40
2019-01-19T09:28:02.833Z,-3.40
2019-01-19T09:30:31.407Z,-3.50
2019-01-19T09:33:00.174Z,-3.30
2019-01-19T09:35:29.040Z,-3.10
2019-01-19T09:37:57.634Z,-3.10
2019-01-19T09:40:26.228Z,-2.90
2019-01-19T09:42:54.895Z,-2.80
2019-01-19T09:45:23.558Z,-2.40
2019-01-19T09:47:52.151Z,-2.10
2019-01-19T09:50:21.879Z,-1.80
2019-01-19T09:52:50.551Z,-1.50
2019-01-19T09:55:19.217Z,-1.80
2019-01-19T09:57:47.814Z,-2.00
2019-01-19T10:00:25.162Z,-1.80
2019-01-19T10:03:02.681Z,-1.30
2019-01-19T10:05:31.267Z,-1.20
2019-01-19T10:07:59.939Z,-1.40
2019-01-19T10:10:28.527Z,-1.20
2019-01-19T10:12:57.131Z,-1.10
2019-01-19T10:15:25.720Z,-0.60
2019-01-19T10:17:54.315Z,-0.40
2019-01-19T10:20:30.567Z,-0.30
2019-01-19T10:23:01.092Z,0.00
2019-01-19T10:25:29.743Z,-0.30
2019-01-19T10:27:58.327Z,0.10
2019-01-19T10:30:31.016Z,0.40
2019-01-19T10:35:27.957Z,1.00
2019-01-19T10:37:57.021Z,1.00
2019-01-19T10:40:25.715Z,0.60
2019-01-19T10:42:55.251Z,0.60
2019-01-19T10:45:25.892Z,0.80
2019-01-19T10:47:54.542Z,1.20
2019-01-19T10:50:23.143Z,1.20
2019-01-19T10:52:51.796Z,1.80
2019-01-19T10:55:22.030Z,1.60
2019-01-19T11:00:27.567Z,2.30
2019-01-19T11:02:56.995Z,2.50
2019-01-19T11:05:25.658Z,2.90
2019-01-19T11:07:54.654Z,2.60
2019-01-19T11:15:21.081Z,4.20
2019-01-19T11:17:49.730Z,4.60
2019-01-19T11:20:26.835Z,4.30
2019-01-19T11:23:02.393Z,5.00
2019-01-19T11:25:31.154Z,5.10
2019-01-19T11:27:59.738Z,5.20
2019-01-19T11:30:30.377Z,5.80
2019-01-19T11:32:59.893Z,6.10
2019-01-19T11:35:28.738Z,5.20
2019-01-19T11:37:57.321Z,6.70
2019-01-19T11:43:04.666Z,7.40
2019-01-19T11:48:01.659Z,7.20
2019-01-19T11:52:58.651Z,8.50
2019-01-19T11:55:27.311Z,8.80
2019-01-19T11:58:01.211Z,8.90
2019-01-19T12:00:35.558Z,9.10
2019-01-19T12:03:12.376Z,9.20
2019-01-19T12:08:09.871Z,9.20
2019-01-19T12:10:38.464Z,9.50
2019-01-19T12:13:28.346Z,9.20
2019-01-19T12:15:56.947Z,8.80
2019-01-19T12:18:25.527Z,8.20
2019-01-19T12:20:54.123Z,7.80
2019-01-19T12:23:22.710Z,8.20
2019-01-19T12:25:51.795Z,8.60
2019-01-19T12:28:20.478Z,8.50
2019-01-19T12:30:49.247Z,8.60
2019-01-19T12:33:18.851Z,9.00
2019-01-19T12:38:15.774Z,10.20
2019-01-19T12:40:44.357Z,10.90
2019-01-19T12:43:19.072Z,10.60
2019-01-19T12:45:53.018Z,11.70
2019-01-19T12:48:21.620Z,12.60
2019-01-19T12:50:50.198Z,13.50
2019-01-19T12:55:49.683Z,14.10
2019-01-19T12:58:18.355Z,13.50
2019-01-19T13:00:46.952Z,14.40
2019-01-19T13:03:15.624Z,14.20
2019-01-19T13:05:47.322Z,13.10
2019-01-19T13:08:21.948Z,13.30
2019-01-19T13:10:53.610Z,14.20
2019-01-19T13:13:22.349Z,13.90
2019-01-19T13:16:02.967Z,13.50
2019-01-19T13:18:40.224Z,12.90
2019-01-19T13:21:34.235Z,13.60
2019-01-19T13:24:15.451Z,13.00
2019-01-19T13:30:05.494Z,14.60
2019-01-19T13:32:37.275Z,15.40
2019-01-19T13:35:37.386Z,14.60
2019-01-19T13:38:27.188Z,15.00
2019-01-19T13:41:21.486Z,14.70
2019-01-19T13:44:22.007Z,15.60
2019-01-19T13:46:59.591Z,16.00
2019-01-19T13:49:46.157Z,14.90
2019-01-19T13:52:17.818Z,14.50
2019-01-19T13:55:18.475Z,14.80
2019-01-19T13:57:55.813Z,15.30
2019-01-19T14:00:39.579Z,15.50
2019-01-19T14:06:12.774Z,14.20
2019-01-19T14:09:02.528Z,14.40
2019-01-19T14:12:01.422Z,14.70
2019-01-19T14:15:11.183Z,13.00
2019-01-19T14:17:45.618Z,13.20
2019-01-19T14:20:23.051Z,14.10
2019-01-19T14:23:10.395Z,13.60
2019-01-19T14:26:04.479Z,12.00
2019-01-19T14:29:05.063Z,11.90
2019-01-19T14:31:58.136Z,12.10
2019-01-19T14:35:05.995Z,12.80
2019-01-19T14:38:06.587Z,12.20
2019-01-19T14:40:47.184Z,12.20
2019-01-19T14:43:22.783Z,10.70
2019-01-19T14:46:17.307Z,10.00
2019-01-19T14:49:16.251Z,9.40
2019-01-19T14:51:53.378Z,8.00
2019-01-19T14:54:40.567Z,8.20
2019-01-19T14:57:33.451Z,8.00
2019-01-19T15:00:11.138Z,7.60
2019-01-19T15:03:19.275Z,8.00
2019-01-19T15:06:07.123Z,7.10
2019-01-19T15:08:44.365Z,7.80
2019-01-19T15:11:28.042Z,8.00
2019-01-19T15:14:02.412Z,6.60
2019-01-19T15:16:58.082Z,6.10
2019-01-19T15:19:44.936Z,5.30
2019-01-19T15:24:58.107Z,3.90
2019-01-19T15:27:32.460Z,3.80
2019-01-19T15:30:06.606Z,4.40
2019-01-19T15:32:38.278Z,3.40
2019-01-19T15:35:28.074Z,3.30
2019-01-19T15:38:08.535Z,3.20
2019-01-19T15:40:43.039Z,3.10
2019-01-19T15:43:38.958Z,2.70
2019-01-19T15:46:19.367Z,2.40
2019-01-19T15:49:10.566Z,2.20
2019-01-19T15:51:54.191Z,2.10
2019-01-19T15:54:25.855Z,1.90
2019-01-19T15:57:09.111Z,1.60
2019-01-19T15:59:52.506Z,1.30
2019-01-19T16:02:37.283Z,1.20
2019-01-19T16:05:11.363Z,1.30
2019-01-19T16:07:58.307Z,1.20
2019-01-19T16:10:51.111Z,1.10
2019-01-19T16:13:25.562Z,0.90
2019-01-19T16:16:13.701Z,0.70
2019-01-19T16:18:45.374Z,0.60
2019-01-19T16:21:17.034Z,0.40
2019-01-19T16:23:58.812Z,0.40
2019-01-19T16:26:49.979Z,0.40
2019-01-19T16:29:33.774Z,0.30
2019-01-19T16:32:08.081Z,0.20
2019-01-19T16:37:17.535Z,-0.30
2019-01-19T16:42:37.147Z,-0.50
2019-01-19T16:45:37.811Z,-0.40
2019-01-19T16:48:12.387Z,-0.40
2019-01-19T16:50:56.234Z,-0.40
2019-01-19T16:53:40.587Z,-0.50
2019-01-19T16:56:35.001Z,-0.50
2019-01-19T16:59:21.658Z,-0.50
2019-01-19T17:02:05.361Z,-0.50
2019-01-19T17:04:52.190Z,-0.60
2019-01-19T17:07:35.678Z,-0.70
2019-01-19T17:10:19.626Z,-0.70
2019-01-19T17:13:03.060Z,-0.80
2019-01-19T17:15:34.739Z,-0.80
2019-01-19T17:18:15.387Z,-0.90
2019-01-19T17:21:06.756Z,-0.90
2019-01-19T17:23:56.170Z,-1.00
2019-01-19T17:26:36.618Z,-1.00
2019-01-19T17:29:10.840Z,-1.00
2019-01-19T17:31:58.918Z,-1.10
2019-01-19T17:34:45.782Z,-1.20
2019-01-19T17:37:35.638Z,-1.20
2019-01-19T17:40:16.331Z,-1.20
2019-01-19T17:43:03.131Z,-1.30
2019-01-19T17:45:37.727Z,-1.40
2019-01-19T17:48:09.391Z,-1.40
2019-01-19T17:51:08.534Z,-1.50
2019-01-19T17:53:55.427Z,-1.50
2019-01-19T17:56:42.081Z,-1.50
2019-01-19T17:59:16.731Z,-1.60
2019-01-19T18:02:13.499Z,-1.50
2019-01-19T18:04:47.871Z,-1.50
2019-01-19T18:07:19.551Z,-1.50
2019-01-19T18:10:27.594Z,-1.50
2019-01-19T18:13:20.378Z,-1.60
2019-01-19T18:16:00.675Z,-1.60
2019-01-19T18:18:59.302Z,-1.70
2019-01-19T18:21:52.172Z,-1.90
2019-01-19T18:24:40.228Z,-2.10
2019-01-19T18:27:17.755Z,-2.30
2019-01-19T18:30:10.520Z,-2.40
2019-01-19T18:32:51.970Z,-2.50
2019-01-19T18:35:46.063Z,-2.60
2019-01-19T18:38:26.339Z,-2.50
2019-01-19T18:41:00.814Z,-2.40
2019-01-19T18:43:44.508Z,-2.40
2019-01-19T18:46:25.162Z,-2.40
2019-01-19T18:49:04.098Z,-2.50
2019-01-19T18:51:38.974Z,-2.60
2019-01-19T18:54:30.110Z,-2.50
2019-01-19T18:57:24.338Z,-2.60
2019-01-19T19:00:11.118Z,-2.60
2019-01-19T19:03:02.319Z,-2.60
2019-01-19T19:06:05.341Z,-2.60
2019-01-19T19:08:52.091Z,-2.60
2019-01-19T19:11:47.798Z,-2.70
2019-01-19T19:14:28.562Z,-2.60
2019-01-19T19:17:12.100Z,-2.60
2019-01-19T19:19:49.715Z,-2.90
2019-01-19T19:22:23.867Z,-3.20
2019-01-19T19:25:01.291Z,-3.30
2019-01-19T19:27:45.021Z,-3.50
2019-01-19T19:30:39.602Z,-3.50
2019-01-19T19:33:23.129Z,-3.30
2019-01-19T19:36:19.031Z,-3.40
2019-01-19T19:38:50.703Z,-3.30
2019-01-19T19:41:46.769Z,-3.40
2019-01-19T19:44:38.335Z,-3.50
2019-01-19T19:47:19.195Z,-3.50
2019-01-19T19:50:07.458Z,-3.50
2019-01-19T19:52:36.055Z,-3.60
2019-01-19T19:55:03.558Z,-3.50
2019-01-19T19:57:32.147Z,-3.60
2019-01-19T20:00:00.748Z,-3.60
2019-01-19T20:02:29.407Z,-3.60
2019-01-19T20:04:58.015Z,-3.50
2019-01-19T20:07:26.599Z,-3.60
2019-01-19T20:09:55.195Z,-3.50
2019-01-19T20:12:23.784Z,-3.50
2019-01-19T20:14:52.382Z,-3.60
2019-01-19T20:17:20.971Z,-3.60
2019-01-19T20:19:49.566Z,-3.60
2019-01-19T20:22:18.157Z,-3.70
2019-01-19T20:24:46.750Z,-3.80
2019-01-19T20:27:15.347Z,-3.90
2019-01-19T20:29:43.951Z,-3.90
2019-01-19T20:32:12.538Z,-4.00
2019-01-19T20:34:46.936Z,-4.00
2019-01-19T20:37:15.527Z,-3.90
2019-01-19T20:39:44.127Z,-3.90
2019-01-19T20:42:12.719Z,-3.80
2019-01-19T20:44:41.356Z,-3.80
2019-01-19T20:47:09.938Z,-3.80
2019-01-19T20:49:38.531Z,-3.80
2019-01-19T20:52:07.135Z,-3.80
2019-01-19T20:54:35.718Z,-3.70
2019-01-19T20:57:04.459Z,-3.70
2019-01-19T20:59:33.047Z,-3.70
2019-01-19T21:02:01.648Z,-3.70
2019-01-19T21:04:30.235Z,-3.60
2019-01-19T21:06:58.843Z,-3.60
2019-01-19T21:09:27.494Z,-3.70
2019-01-19T21:11:56.091Z,-3.80
2019-01-19T21:14:24.687Z,-4.00
2019-01-19T21:16:53.291Z,-4.40
2019-01-19T21:19:21.879Z,-4.50
2019-01-19T21:21:50.470Z,-4.50
2019-01-19T21:24:26.583Z,-4.60
2019-01-19T21:26:55.187Z,-4.50
2019-01-19T21:29:23.770Z,-4.40
2019-01-19T21:31:52.374Z,-4.40
2019-01-19T21:34:21.928Z,-4.40
2019-01-19T21:36:50.670Z,-4.40
2019-01-19T21:39:19.252Z,-4.40
2019-01-19T21:41:47.855Z,-4.30
2019-01-19T21:44:19.435Z,-4.30
2019-01-19T21:46:48.030Z,-4.40
2019-01-19T21:49:17.519Z,-4.30
2019-01-19T21:51:46.123Z,-4.30
2019-01-19T21:54:14.720Z,-4.30
2019-01-19T21:56:43.319Z,-4.50
2019-01-19T21:59:11.903Z,-4.40
2019-01-19T22:01:40.491Z,-4.40
2019-01-19T22:04:09.095Z,-4.40
2019-01-19T22:06:37.682Z,-4.50
2019-01-19T22:09:07.463Z,-4.50
2019-01-19T22:11:36.050Z,-4.50
2019-01-19T22:14:05.082Z,-4.50
2019-01-19T22:16:33.675Z,-4.50
2019-01-19T22:19:02.271Z,-4.50
2019-01-19T22:21:30.865Z,-4.50
2019-01-19T22:24:00.392Z,-4.60
2019-01-19T22:26:29.347Z,-4.60
2019-01-19T22:28:57.952Z,-4.60
2019-01-19T22:31:26.545Z,-4.60
2019-01-19T22:33:56.123Z,-4.70
2019-01-19T22:36:24.712Z,-4.70
2019-01-19T22:38:53.315Z,-4.70
2019-01-19T22:41:21.902Z,-4.70
2019-01-19T22:43:50.504Z,-4.70
2019-01-19T22:46:19.091Z,-4.70
2019-01-19T22:48:47.695Z,-4.70
2019-01-19T22:51:16.284Z,-4.70
2019-01-19T22:53:44.886Z,-4.80
2019-01-19T22:56:13.470Z,-4.80
2019-01-19T22:58:42.070Z,-4.80
2019-01-19T23:01:25.723Z,-4.80
2019-01-19T23:03:54.328Z,-4.90
2019-01-19T23:06:22.918Z,-4.90
2019-01-19T23:08:51.524Z,-4.90
2019-01-19T23:11:20.180Z,-4.90
2019-01-19T23:13:49.735Z,-5.00
2019-01-19T23:16:18.324Z,-5.10
2019-01-19T23:18:46.906Z,-5.20
2019-01-19T23:21:15.515Z,-5.30
2019-01-19T23:23:45.173Z,-5.30
2019-01-19T23:26:14.159Z,-5.40
2019-01-19T23:28:42.750Z,-5.40
2019-01-19T23:31:11.350Z,-5.50
2019-01-19T23:33:39.934Z,-5.60
2019-01-19T23:36:08.610Z,-5.60
2019-01-19T23:38:37.200Z,-5.60
2019-01-19T23:41:09.015Z,-5.60
2019-01-19T23:43:36.115Z,-5.60
2019-01-19T23:46:05.560Z,-5.50
2019-01-19T23:48:34.274Z,-5.50
2019-01-19T23:51:04.117Z,-5.40
2019-01-19T23:53:32.703Z,-5.40
2019-01-19T23:56:01.306Z,-5.40
2019-01-19T23:58:29.899Z,-5.40
